createdAt,value
2018-04-22T00:00:45.426Z,17.76
2018-04-22T00:01:45.396Z,17.71
2018-04-22T00:02:45.365Z,17.79
2018-04-22T00:03:45.339Z,17.83
2018-04-22T00:04:45.319Z,17.87
2018-04-22T00:05:45.288Z,17.90
2018-04-22T00:06:45.270Z,17.93
2018-04-22T00:07:45.252Z,17.90
2018-04-22T00:08:45.217Z,17.83
2018-04-22T00:09:45.190Z,17.78
2018-04-22T00:10:45.172Z,17.71
2018-04-22T00:11:45.146Z,17.72
2018-04-22T00:12:45.122Z,17.75
2018-04-22T00:13:45.100Z,17.65
2018-04-22T00:14:45.074Z,17.56
2018-04-22T00:15:45.079Z,17.75
2018-04-22T00:16:45.026Z,17.69
2018-04-22T00:17:44.997Z,17.69
2018-04-22T00:18:44.971Z,17.76
2018-04-22T00:19:44.982Z,17.83
2018-04-22T00:20:44.921Z,17.72
2018-04-22T00:21:44.901Z,17.73
2018-04-22T00:22:44.870Z,17.75
2018-04-22T00:23:44.935Z,17.72
2018-04-22T00:24:44.849Z,17.66
2018-04-22T00:25:44.862Z,17.63
2018-04-22T00:26:44.838Z,17.78
2018-04-22T00:27:44.928Z,17.76
2018-04-22T00:28:44.777Z,17.91
2018-04-22T00:29:46.299Z,17.72
2018-04-22T00:30:44.774Z,17.78
2018-04-22T00:31:44.744Z,17.73
2018-04-22T00:32:44.679Z,17.57
2018-04-22T00:33:44.655Z,17.62
2018-04-22T00:34:44.621Z,17.66
2018-04-22T00:35:44.626Z,17.62
2018-04-22T00:36:44.538Z,17.62
2018-04-22T00:37:44.564Z,17.56
2018-04-22T00:38:44.539Z,17.59
2018-04-22T00:39:44.511Z,17.65
2018-04-22T00:40:44.476Z,17.62
2018-04-22T00:41:44.455Z,17.68
2018-04-22T00:42:44.437Z,17.46
2018-04-22T00:43:44.418Z,17.41
2018-04-22T00:44:44.396Z,17.35
2018-04-22T00:45:44.358Z,17.25
2018-04-22T00:46:44.340Z,17.32
2018-04-22T00:47:44.304Z,17.34
2018-04-22T00:48:44.292Z,17.32
2018-04-22T00:49:44.237Z,17.31
2018-04-22T00:50:44.236Z,17.30
2018-04-22T00:51:44.219Z,17.28
2018-04-22T00:52:44.238Z,17.31
2018-04-22T00:53:44.192Z,17.34
2018-04-22T00:54:44.171Z,17.39
2018-04-22T00:55:44.137Z,17.35
2018-04-22T00:56:44.099Z,17.39
2018-04-22T00:57:44.071Z,17.41
2018-04-22T00:58:44.032Z,17.41
2018-04-22T00:59:44.020Z,17.35
2018-04-22T01:00:43.992Z,17.38
2018-04-22T01:01:43.976Z,17.32
2018-04-22T01:02:43.950Z,17.31
2018-04-22T01:03:43.929Z,17.32
2018-04-22T01:04:43.839Z,17.30
2018-04-22T01:05:43.865Z,17.25
2018-04-22T01:06:43.851Z,17.27
2018-04-22T01:07:43.872Z,17.22
2018-04-22T01:08:43.789Z,17.20
2018-04-22T01:09:43.765Z,17.14
2018-04-22T01:10:43.740Z,17.16
2018-04-22T01:11:43.724Z,17.13
2018-04-22T01:12:43.714Z,17.19
2018-04-22T01:13:43.677Z,17.25
2018-04-22T01:14:43.640Z,17.25
2018-04-22T01:15:43.612Z,17.19
2018-04-22T01:16:43.581Z,17.24
2018-04-22T01:17:43.562Z,17.32
2018-04-22T01:18:43.538Z,17.34
2018-04-22T01:19:43.517Z,17.28
2018-04-22T01:20:43.497Z,17.35
2018-04-22T01:21:43.508Z,17.37
2018-04-22T01:22:43.445Z,17.28
2018-04-22T01:23:43.426Z,17.12
2018-04-22T01:24:43.457Z,17.06
2018-04-22T01:25:43.375Z,16.94
2018-04-22T01:26:43.352Z,16.97
2018-04-22T01:27:43.336Z,16.97
2018-04-22T01:28:43.294Z,16.99
2018-04-22T01:29:43.282Z,16.92
2018-04-22T01:30:43.255Z,17.04
2018-04-22T01:31:43.218Z,16.95
2018-04-22T01:32:43.192Z,16.98
2018-04-22T01:33:43.166Z,17.01
2018-04-22T01:34:43.168Z,17.06
2018-04-22T01:35:43.129Z,17.12
2018-04-22T01:36:43.045Z,17.17
2018-04-22T01:37:43.101Z,17.06
2018-04-22T01:38:43.057Z,17.12
2018-04-22T01:39:43.030Z,17.01
2018-04-22T01:40:43.013Z,17.02
2018-04-22T01:41:42.984Z,16.98
2018-04-22T01:42:42.959Z,16.94
2018-04-22T01:43:42.934Z,16.95
2018-04-22T01:44:42.916Z,16.94
2018-04-22T01:45:42.884Z,16.97
2018-04-22T01:46:42.851Z,17.06
2018-04-22T01:47:42.848Z,16.97
2018-04-22T01:48:42.793Z,16.99
2018-04-22T01:49:42.797Z,16.98
2018-04-22T01:50:42.746Z,16.94
2018-04-22T01:51:42.712Z,16.90
2018-04-22T01:52:42.678Z,16.99
2018-04-22T01:53:42.676Z,16.92
2018-04-22T01:54:42.681Z,16.79
2018-04-22T01:55:42.607Z,16.69
2018-04-22T01:56:42.603Z,16.70
2018-04-22T01:57:42.570Z,16.82
2018-04-22T01:58:42.505Z,16.74
2018-04-22T01:59:42.478Z,16.80
2018-04-22T02:00:42.451Z,16.91
2018-04-22T02:01:42.437Z,16.91
2018-04-22T02:02:42.395Z,16.92
2018-04-22T02:03:42.416Z,16.97
2018-04-22T02:04:42.344Z,16.92
2018-04-22T02:05:42.320Z,16.88
2018-04-22T02:06:42.290Z,16.87
2018-04-22T02:07:42.266Z,16.90
2018-04-22T02:08:42.241Z,16.91
2018-04-22T02:09:42.213Z,16.91
2018-04-22T02:10:42.196Z,16.94
2018-04-22T02:11:42.170Z,16.91
2018-04-22T02:12:42.146Z,16.88
2018-04-22T02:13:42.126Z,16.95
2018-04-22T02:14:42.096Z,16.80
2018-04-22T02:15:42.081Z,16.82
2018-04-22T02:16:42.042Z,16.87
2018-04-22T02:17:42.044Z,16.97
2018-04-22T02:18:41.992Z,16.91
2018-04-22T02:19:41.969Z,16.90
2018-04-22T02:20:41.956Z,16.90
2018-04-22T02:21:41.932Z,16.90
2018-04-22T02:22:41.893Z,16.74
2018-04-22T02:23:41.873Z,16.80
2018-04-22T02:24:41.839Z,16.79
2018-04-22T02:25:41.817Z,16.72
2018-04-22T02:26:41.817Z,16.87
2018-04-22T02:27:41.775Z,16.76
2018-04-22T02:28:43.287Z,16.67
2018-04-22T02:29:41.725Z,16.64
2018-04-22T02:30:41.708Z,16.57
2018-04-22T02:31:41.668Z,16.44
2018-04-22T02:32:41.647Z,16.47
2018-04-22T02:33:41.617Z,16.46
2018-04-22T02:34:41.591Z,16.46
2018-04-22T02:35:41.565Z,16.61
2018-04-22T02:36:41.535Z,16.64
2018-04-22T02:37:41.514Z,16.64
2018-04-22T02:38:41.487Z,16.65
2018-04-22T02:39:41.465Z,16.67
2018-04-22T02:40:41.443Z,16.61
2018-04-22T02:41:41.414Z,16.65
2018-04-22T02:42:41.394Z,16.59
2018-04-22T02:43:41.368Z,16.62
2018-04-22T02:44:41.339Z,16.62
2018-04-22T02:45:41.314Z,16.70
2018-04-22T02:46:41.287Z,16.70
2018-04-22T02:47:41.274Z,16.73
2018-04-22T02:48:41.240Z,16.76
2018-04-22T02:49:41.221Z,16.65
2018-04-22T02:50:41.192Z,16.64
2018-04-22T02:51:41.158Z,16.62
2018-04-22T02:52:41.139Z,16.59
2018-04-22T02:53:41.116Z,16.46
2018-04-22T02:54:41.125Z,16.51
2018-04-22T02:55:41.069Z,16.52
2018-04-22T02:56:41.044Z,16.52
2018-04-22T02:57:41.034Z,16.52
2018-04-22T02:58:40.981Z,16.51
2018-04-22T02:59:40.963Z,16.51
2018-04-22T03:00:40.950Z,16.55
2018-04-22T03:01:40.920Z,16.51
2018-04-22T03:02:40.881Z,16.52
2018-04-22T03:03:40.855Z,16.43
2018-04-22T03:04:40.834Z,16.42
2018-04-22T03:05:40.801Z,16.46
2018-04-22T03:06:40.797Z,16.36
2018-04-22T03:07:40.757Z,16.36
2018-04-22T03:08:40.734Z,16.34
2018-04-22T03:09:40.710Z,16.46
2018-04-22T03:10:40.688Z,16.32
2018-04-22T03:11:40.659Z,16.32
2018-04-22T03:12:40.640Z,16.34
2018-04-22T03:13:40.647Z,16.33
2018-04-22T03:14:40.574Z,16.36
2018-04-22T03:15:40.554Z,16.29
2018-04-22T03:16:40.566Z,16.21
2018-04-22T03:17:40.534Z,16.25
2018-04-22T03:18:40.471Z,16.14
2018-04-22T03:19:40.467Z,16.09
2018-04-22T03:20:40.424Z,15.99
2018-04-22T03:21:40.421Z,15.98
2018-04-22T03:22:40.375Z,15.93
2018-04-22T03:23:40.351Z,15.90
2018-04-22T03:24:40.336Z,15.95
2018-04-22T03:25:40.303Z,15.95
2018-04-22T03:26:40.284Z,15.96
2018-04-22T03:27:40.259Z,16.02
2018-04-22T03:28:40.240Z,16.03
2018-04-22T03:29:40.205Z,16.05
2018-04-22T03:30:40.173Z,16.05
2018-04-22T03:31:40.152Z,16.09
2018-04-22T03:32:40.118Z,16.03
2018-04-22T03:33:40.104Z,15.96
2018-04-22T03:34:40.070Z,16.00
2018-04-22T03:35:40.039Z,15.99
2018-04-22T03:36:40.023Z,15.99
2018-04-22T03:37:39.988Z,15.99
2018-04-22T03:38:39.995Z,16.05
2018-04-22T03:39:39.943Z,15.95
2018-04-22T03:40:39.941Z,15.99
2018-04-22T03:41:39.894Z,15.88
2018-04-22T03:42:39.891Z,15.95
2018-04-22T03:43:39.850Z,15.93
2018-04-22T03:44:39.821Z,15.88
2018-04-22T03:45:39.795Z,15.83
2018-04-22T03:46:39.781Z,15.93
2018-04-22T03:47:39.740Z,15.93
2018-04-22T03:48:39.713Z,15.84
2018-04-22T03:49:39.708Z,15.93
2018-04-22T03:50:39.662Z,15.84
2018-04-22T03:51:39.635Z,15.90
2018-04-22T03:52:39.610Z,15.83
2018-04-22T03:53:39.585Z,15.83
2018-04-22T03:54:39.564Z,15.84
2018-04-22T03:55:39.623Z,15.84
2018-04-22T03:56:39.508Z,15.85
2018-04-22T03:57:39.486Z,15.90
2018-04-22T03:58:39.450Z,15.88
2018-04-22T03:59:39.427Z,15.83
2018-04-22T04:00:39.400Z,15.83
2018-04-22T04:01:39.375Z,15.83
2018-04-22T04:02:39.361Z,15.69
2018-04-22T04:03:39.326Z,15.69
2018-04-22T04:04:39.302Z,15.65
2018-04-22T04:05:39.293Z,15.72
2018-04-22T04:06:39.261Z,15.84
2018-04-22T04:07:39.225Z,15.87
2018-04-22T04:08:39.200Z,15.81
2018-04-22T04:09:39.182Z,15.80
2018-04-22T04:10:39.149Z,15.83
2018-04-22T04:11:39.121Z,15.73
2018-04-22T04:12:39.095Z,15.99
2018-04-22T04:13:39.067Z,15.90
2018-04-22T04:14:39.072Z,15.77
2018-04-22T04:15:39.025Z,15.70
2018-04-22T04:16:38.991Z,15.68
2018-04-22T04:17:39.003Z,15.58
2018-04-22T04:18:38.941Z,15.50
2018-04-22T04:19:38.919Z,15.59
2018-04-22T04:20:38.892Z,15.54
2018-04-22T04:21:38.873Z,15.60
2018-04-22T04:22:38.845Z,15.66
2018-04-22T04:23:38.827Z,15.76
2018-04-22T04:24:38.789Z,15.88
2018-04-22T04:25:38.764Z,15.93
2018-04-22T04:26:38.737Z,15.91
2018-04-22T04:27:38.708Z,15.85
2018-04-22T04:28:38.686Z,15.93
2018-04-22T04:29:38.669Z,15.93
2018-04-22T04:30:38.674Z,15.80
2018-04-22T04:31:38.618Z,15.76
2018-04-22T04:32:38.578Z,15.70
2018-04-22T04:33:38.566Z,15.63
2018-04-22T04:34:38.542Z,15.62
2018-04-22T04:35:38.509Z,15.62
2018-04-22T04:36:38.487Z,15.44
2018-04-22T04:37:38.460Z,15.44
2018-04-22T04:38:38.431Z,15.36
2018-04-22T04:39:38.406Z,15.40
2018-04-22T04:40:38.388Z,15.40
2018-04-22T04:41:38.351Z,15.41
2018-04-22T04:42:38.325Z,15.35
2018-04-22T04:43:38.300Z,15.43
2018-04-22T04:44:38.274Z,15.51
2018-04-22T04:45:38.245Z,15.48
2018-04-22T04:46:38.224Z,15.54
2018-04-22T04:47:38.196Z,15.60
2018-04-22T04:48:38.171Z,15.58
2018-04-22T04:49:38.138Z,15.65
2018-04-22T04:50:38.120Z,15.69
2018-04-22T04:51:38.098Z,15.63
2018-04-22T04:52:38.067Z,15.63
2018-04-22T04:53:38.047Z,15.69
2018-04-22T04:54:38.014Z,15.66
2018-04-22T04:55:38.005Z,15.69
2018-04-22T04:56:37.967Z,15.77
2018-04-22T04:57:37.984Z,15.77
2018-04-22T04:58:37.913Z,15.72
2018-04-22T04:59:37.882Z,15.77
2018-04-22T05:00:37.871Z,15.81
2018-04-22T05:01:37.829Z,15.83
2018-04-22T05:02:37.812Z,15.84
2018-04-22T05:03:37.824Z,15.81
2018-04-22T05:04:37.760Z,15.87
2018-04-22T05:05:37.735Z,15.85
2018-04-22T05:06:37.722Z,15.91
2018-04-22T05:07:37.676Z,15.91
2018-04-22T05:08:37.652Z,16.05
2018-04-22T05:09:37.623Z,15.98
2018-04-22T05:10:37.614Z,16.08
2018-04-22T05:11:37.579Z,16.18
2018-04-22T05:12:37.566Z,16.09
2018-04-22T05:13:37.539Z,16.14
2018-04-22T05:14:37.507Z,16.03
2018-04-22T05:15:37.479Z,16.17
2018-04-22T05:16:37.452Z,16.25
2018-04-22T05:17:37.424Z,16.22
2018-04-22T05:18:37.396Z,16.22
2018-04-22T05:19:37.370Z,16.18
2018-04-22T05:20:37.352Z,16.18
2018-04-22T05:21:37.327Z,16.10
2018-04-22T05:22:37.287Z,15.98
2018-04-22T05:23:37.272Z,15.99
2018-04-22T05:24:37.247Z,16.05
2018-04-22T05:25:37.219Z,16.00
2018-04-22T05:26:37.196Z,16.06
2018-04-22T05:27:37.170Z,15.99
2018-04-22T05:28:37.136Z,15.99
2018-04-22T05:29:37.112Z,15.90
2018-04-22T05:30:37.153Z,15.93
2018-04-22T05:31:37.089Z,15.91
2018-04-22T05:32:37.040Z,15.90
2018-04-22T05:33:37.015Z,15.88
2018-04-22T05:34:36.986Z,15.93
2018-04-22T05:35:36.965Z,15.98
2018-04-22T05:36:36.939Z,15.98
2018-04-22T05:37:36.917Z,16.03
2018-04-22T05:38:36.886Z,16.02
2018-04-22T05:39:36.860Z,16.05
2018-04-22T05:40:36.833Z,16.10
2018-04-22T05:41:36.838Z,16.08
2018-04-22T05:42:36.826Z,16.06
2018-04-22T05:43:36.780Z,16.05
2018-04-22T05:44:36.729Z,16.00
2018-04-22T05:45:36.704Z,15.95
2018-04-22T05:46:36.684Z,16.05
2018-04-22T05:47:36.668Z,16.03
2018-04-22T05:48:36.634Z,16.10
2018-04-22T05:49:36.614Z,16.16
2018-04-22T05:50:36.584Z,16.26
2018-04-22T05:51:36.552Z,16.29
2018-04-22T05:52:36.557Z,16.34
2018-04-22T05:53:36.501Z,16.36
2018-04-22T05:54:36.470Z,16.49
2018-04-22T05:55:36.457Z,16.52
2018-04-22T05:56:36.418Z,16.49
2018-04-22T05:57:36.395Z,16.52
2018-04-22T05:58:36.375Z,16.57
2018-04-22T05:59:36.348Z,16.55
2018-04-22T06:00:36.320Z,16.57
2018-04-22T06:01:36.303Z,16.51
2018-04-22T06:02:36.277Z,16.52
2018-04-22T06:03:36.245Z,16.58
2018-04-22T06:04:36.222Z,16.54
2018-04-22T06:05:36.197Z,16.55
2018-04-22T06:06:36.169Z,16.62
2018-04-22T06:07:36.141Z,16.64
2018-04-22T06:08:36.171Z,16.65
2018-04-22T06:09:36.089Z,16.61
2018-04-22T06:10:36.069Z,16.64
2018-04-22T06:11:36.047Z,16.65
2018-04-22T06:12:36.016Z,16.69
2018-04-22T06:13:36.009Z,16.67
2018-04-22T06:14:35.973Z,16.80
2018-04-22T06:15:35.947Z,16.80
2018-04-22T06:16:35.922Z,16.83
2018-04-22T06:17:35.901Z,16.88
2018-04-22T06:18:35.868Z,16.88
2018-04-22T06:19:35.842Z,16.92
2018-04-22T06:20:35.836Z,17.02
2018-04-22T06:21:35.791Z,17.06
2018-04-22T06:22:35.764Z,17.16
2018-04-22T06:23:35.779Z,17.20
2018-04-22T06:24:35.716Z,17.27
2018-04-22T06:25:35.693Z,17.34
2018-04-22T06:26:35.740Z,17.34
2018-04-22T06:27:35.642Z,17.46
2018-04-22T06:28:35.621Z,17.47
2018-04-22T06:29:35.602Z,17.50
2018-04-22T06:30:35.573Z,17.49
2018-04-22T06:31:35.545Z,17.54
2018-04-22T06:32:35.517Z,17.66
2018-04-22T06:33:35.500Z,17.65
2018-04-22T06:34:35.466Z,17.69
2018-04-22T06:35:35.440Z,17.69
2018-04-22T06:36:35.416Z,17.81
2018-04-22T06:37:35.391Z,17.76
2018-04-22T06:38:35.366Z,17.71
2018-04-22T06:39:35.363Z,17.76
2018-04-22T06:40:35.369Z,17.73
2018-04-22T06:41:35.292Z,17.78
2018-04-22T06:42:35.273Z,17.83
2018-04-22T06:43:35.251Z,17.93
2018-04-22T06:44:35.224Z,17.94
2018-04-22T06:45:35.204Z,18.01
2018-04-22T06:46:35.174Z,18.01
2018-04-22T06:47:35.150Z,18.15
2018-04-22T06:48:35.121Z,18.15
2018-04-22T06:49:35.144Z,18.21
2018-04-22T06:50:35.073Z,18.30
2018-04-22T06:51:35.046Z,18.24
2018-04-22T06:52:35.027Z,18.30
2018-04-22T06:53:34.997Z,18.31
2018-04-22T06:54:34.973Z,18.28
2018-04-22T06:55:34.951Z,18.41
2018-04-22T06:56:34.921Z,18.38
2018-04-22T06:57:34.898Z,18.54
2018-04-22T06:58:34.880Z,18.58
2018-04-22T06:59:34.860Z,18.57
2018-04-22T07:00:34.836Z,18.70
2018-04-22T07:01:34.806Z,18.70
2018-04-22T07:02:34.784Z,18.78
2018-04-22T07:03:34.772Z,18.75
2018-04-22T07:04:34.732Z,18.78
2018-04-22T07:05:34.707Z,18.81
2018-04-22T07:06:34.684Z,18.83
2018-04-22T07:07:34.656Z,18.98
2018-04-22T07:08:34.637Z,19.01
2018-04-22T07:09:34.615Z,19.12
2018-04-22T07:10:34.597Z,19.20
2018-04-22T07:11:34.562Z,19.16
2018-04-22T07:12:34.546Z,19.32
2018-04-22T07:13:34.518Z,19.31
2018-04-22T07:14:34.487Z,19.37
2018-04-22T07:15:34.485Z,19.39
2018-04-22T07:16:34.444Z,19.45
2018-04-22T07:17:34.435Z,19.56
2018-04-22T07:18:34.390Z,19.56
2018-04-22T07:19:34.372Z,19.63
2018-04-22T07:20:34.345Z,19.60
2018-04-22T07:21:34.322Z,19.64
2018-04-22T07:22:34.303Z,19.71
2018-04-22T07:23:34.276Z,19.78
2018-04-22T07:24:34.260Z,19.92
2018-04-22T07:25:34.230Z,19.94
2018-04-22T07:26:34.205Z,20.05
2018-04-22T07:27:34.187Z,20.07
2018-04-22T07:28:34.190Z,20.08
2018-04-22T07:29:34.138Z,20.19
2018-04-22T07:30:34.109Z,20.26
2018-04-22T07:31:34.095Z,20.30
2018-04-22T07:32:34.106Z,20.34
2018-04-22T07:33:34.038Z,20.37
2018-04-22T07:34:34.011Z,20.50
2018-04-22T07:35:34.767Z,20.52
2018-04-22T07:36:33.966Z,20.50
2018-04-22T07:37:33.943Z,20.70
2018-04-22T07:38:34.855Z,20.71
2018-04-22T07:39:33.902Z,20.86
2018-04-22T07:40:33.886Z,20.89
2018-04-22T07:41:33.894Z,20.92
2018-04-22T07:42:33.882Z,21.03
2018-04-22T07:43:33.856Z,21.08
2018-04-22T07:44:36.335Z,21.11
2018-04-22T07:45:34.114Z,21.11
2018-04-22T07:46:33.729Z,21.10
2018-04-22T07:47:50.571Z,21.10
2018-04-22T07:48:33.686Z,21.18
2018-04-22T07:49:33.673Z,21.13
2018-04-22T07:50:33.693Z,21.20
2018-04-22T07:51:33.622Z,21.18
2018-04-22T07:52:33.598Z,21.25
2018-04-22T07:53:33.576Z,21.25
2018-04-22T07:54:33.555Z,21.30
2018-04-22T07:55:33.653Z,21.30
2018-04-22T07:56:33.510Z,21.41
2018-04-22T07:57:33.547Z,21.37
2018-04-22T07:58:33.454Z,21.47
2018-04-22T07:59:33.459Z,21.50
2018-04-22T08:00:33.410Z,21.56
2018-04-22T08:01:33.499Z,21.63
2018-04-22T08:02:33.360Z,21.71
2018-04-22T08:03:33.382Z,21.77
2018-04-22T08:04:33.318Z,21.78
2018-04-22T08:05:33.345Z,21.81
2018-04-22T08:06:33.272Z,21.74
2018-04-22T08:07:33.246Z,21.74
2018-04-22T08:08:33.244Z,21.84
2018-04-22T08:09:33.199Z,21.82
2018-04-22T08:10:33.190Z,21.91
2018-04-22T08:11:33.162Z,21.82
2018-04-22T08:12:33.141Z,22.06
2018-04-22T08:13:33.120Z,22.03
2018-04-22T08:14:33.115Z,22.13
2018-04-22T08:15:33.069Z,22.06
2018-04-22T08:16:33.048Z,22.23
2018-04-22T08:17:33.020Z,22.23
2018-04-22T08:18:33.085Z,22.15
2018-04-22T08:19:32.977Z,22.15
2018-04-22T08:20:32.961Z,22.21
2018-04-22T08:21:32.952Z,22.19
2018-04-22T08:22:32.942Z,22.19
2018-04-22T08:23:32.897Z,22.15
2018-04-22T08:24:32.872Z,22.15
2018-04-22T08:25:32.848Z,22.27
2018-04-22T08:26:32.821Z,22.28
2018-04-22T08:27:32.794Z,22.36
2018-04-22T08:28:32.785Z,22.30
2018-04-22T08:29:32.746Z,22.33
2018-04-22T08:30:32.743Z,22.38
2018-04-22T08:31:32.711Z,22.40
2018-04-22T08:32:32.682Z,22.43
2018-04-22T08:33:32.669Z,22.53
2018-04-22T08:34:32.640Z,22.66
2018-04-22T08:35:32.616Z,22.76
2018-04-22T08:36:32.609Z,22.83
2018-04-22T08:37:32.575Z,22.96
2018-04-22T08:38:32.562Z,23.04
2018-04-22T08:39:32.533Z,23.07
2018-04-22T08:40:32.513Z,23.13
2018-04-22T08:41:32.485Z,23.21
2018-04-22T08:42:32.465Z,23.13
2018-04-22T08:43:32.440Z,23.14
2018-04-22T08:44:32.420Z,23.15
2018-04-22T08:45:32.403Z,22.98
2018-04-22T08:46:32.372Z,23.06
2018-04-22T08:47:32.350Z,22.96
2018-04-22T08:48:32.329Z,23.06
2018-04-22T08:49:32.309Z,23.07
2018-04-22T08:50:32.286Z,23.08
2018-04-22T08:51:32.267Z,23.17
2018-04-22T08:52:32.253Z,23.17
2018-04-22T08:53:32.224Z,23.17
2018-04-22T08:54:32.202Z,23.14
2018-04-22T08:55:32.216Z,23.15
2018-04-22T08:56:32.170Z,23.17
2018-04-22T08:57:32.160Z,23.41
2018-04-22T08:58:32.157Z,23.42
2018-04-22T08:59:32.086Z,23.48
2018-04-22T09:00:32.066Z,23.44
2018-04-22T09:01:32.065Z,23.41
2018-04-22T09:02:32.028Z,23.46
2018-04-22T09:03:32.007Z,23.45
2018-04-22T09:04:31.978Z,23.60
2018-04-22T09:05:31.966Z,23.67
2018-04-22T09:06:32.032Z,23.67
2018-04-22T09:07:31.922Z,23.63
2018-04-22T09:08:31.909Z,23.55
2018-04-22T09:09:31.884Z,23.55
2018-04-22T09:10:31.928Z,23.59
2018-04-22T09:11:31.863Z,23.78
2018-04-22T09:12:31.822Z,23.76
2018-04-22T09:13:31.789Z,23.67
2018-04-22T09:14:31.826Z,23.88
2018-04-22T09:15:31.747Z,23.73
2018-04-22T09:16:31.735Z,23.66
2018-04-22T09:17:31.712Z,23.70
2018-04-22T09:18:31.698Z,23.74
2018-04-22T09:19:31.668Z,23.67
2018-04-22T09:20:31.707Z,23.69
2018-04-22T09:21:32.108Z,23.66
2018-04-22T09:22:31.594Z,23.74
2018-04-22T09:23:31.582Z,23.73
2018-04-22T09:24:31.579Z,23.92
2018-04-22T09:25:31.534Z,24.03
2018-04-22T09:26:31.532Z,24.01
2018-04-22T09:27:31.491Z,24.08
2018-04-22T09:28:31.470Z,24.18
2018-04-22T09:29:31.506Z,24.07
2018-04-22T09:30:31.439Z,24.11
2018-04-22T09:31:31.426Z,24.29
2018-04-22T09:32:31.397Z,24.43
2018-04-22T09:33:31.422Z,24.51
2018-04-22T09:34:31.387Z,24.55
2018-04-22T09:35:31.861Z,24.60
2018-04-22T09:36:32.843Z,24.74
2018-04-22T09:37:31.345Z,24.75
2018-04-22T09:38:31.307Z,24.75
2018-04-22T09:39:31.284Z,24.90
2018-04-22T09:40:31.273Z,24.79
2018-04-22T09:41:31.226Z,24.85
2018-04-22T09:42:31.223Z,24.86
2018-04-22T09:43:31.580Z,24.82
2018-04-22T09:44:31.142Z,24.82
2018-04-22T09:45:31.138Z,25.15
2018-04-22T09:46:31.113Z,25.22
2018-04-22T09:47:31.109Z,25.23
2018-04-22T09:48:31.074Z,25.27
2018-04-22T09:49:31.042Z,25.15
2018-04-22T09:50:31.030Z,25.04
2018-04-22T09:51:31.003Z,25.16
2018-04-22T09:52:30.986Z,25.27
2018-04-22T09:53:30.967Z,25.37
2018-04-22T09:54:30.935Z,25.53
2018-04-22T09:55:32.847Z,25.61
2018-04-22T09:56:30.901Z,25.51
2018-04-22T09:57:30.879Z,25.53
2018-04-22T09:58:30.854Z,25.46
2018-04-22T09:59:30.861Z,25.58
2018-04-22T10:00:30.838Z,25.74
2018-04-22T10:01:30.808Z,25.73
2018-04-22T10:02:30.784Z,25.64
2018-04-22T10:03:30.760Z,25.64
2018-04-22T10:04:30.786Z,25.73
2018-04-22T10:05:30.723Z,25.63
2018-04-22T10:06:30.763Z,26.05
2018-04-22T10:07:30.693Z,26.16
2018-04-22T10:08:30.668Z,26.30
2018-04-22T10:09:30.645Z,26.21
2018-04-22T10:10:30.706Z,25.88
2018-04-22T10:11:30.608Z,25.75
2018-04-22T10:12:30.660Z,25.81
2018-04-22T10:13:30.564Z,25.98
2018-04-22T10:14:30.550Z,26.01
2018-04-22T10:15:30.532Z,25.75
2018-04-22T10:16:30.521Z,26.00
2018-04-22T10:17:32.353Z,25.63
2018-04-22T10:18:30.477Z,25.88
2018-04-22T10:19:30.465Z,26.11
2018-04-22T10:20:30.441Z,26.10
2018-04-22T10:21:30.470Z,26.23
2018-04-22T10:22:30.405Z,26.27
2018-04-22T10:23:30.535Z,26.21
2018-04-22T10:24:31.427Z,26.16
2018-04-22T10:25:30.348Z,26.31
2018-04-22T10:26:30.333Z,26.31
2018-04-22T10:27:30.300Z,26.23
2018-04-22T10:28:30.355Z,26.16
2018-04-22T10:29:33.946Z,26.11
2018-04-22T10:30:30.261Z,26.19
2018-04-22T10:31:30.226Z,26.27
2018-04-22T10:32:30.215Z,26.33
2018-04-22T10:33:30.192Z,26.45
2018-04-22T10:34:30.177Z,26.56
2018-04-22T10:35:30.164Z,26.52
2018-04-22T10:36:30.146Z,26.52
2018-04-22T10:37:30.133Z,26.49
2018-04-22T10:38:30.108Z,26.61
2018-04-22T10:39:30.093Z,26.60
2018-04-22T10:40:30.069Z,26.80
2018-04-22T10:41:30.047Z,26.70
2018-04-22T10:42:30.025Z,26.79
2018-04-22T10:43:30.017Z,26.70
2018-04-22T10:44:30.001Z,26.76
2018-04-22T10:45:29.978Z,26.75
2018-04-22T10:46:29.951Z,26.70
2018-04-22T10:47:29.939Z,26.75
2018-04-22T10:48:29.931Z,26.98
2018-04-22T10:49:29.898Z,26.89
2018-04-22T10:50:29.899Z,27.04
2018-04-22T10:51:30.860Z,27.25
2018-04-22T10:52:29.880Z,27.41
2018-04-22T10:53:29.829Z,27.25
2018-04-22T10:54:29.818Z,27.04
2018-04-22T10:55:29.815Z,27.13
2018-04-22T10:56:29.780Z,27.15
2018-04-22T10:57:29.776Z,27.19
2018-04-22T10:58:29.744Z,27.27
2018-04-22T10:59:29.731Z,27.42
2018-04-22T11:00:29.825Z,27.54
2018-04-22T11:01:29.732Z,27.26
2018-04-22T11:02:29.779Z,27.37
2018-04-22T11:03:29.773Z,27.60
2018-04-22T11:04:30.216Z,27.66
2018-04-22T11:05:31.504Z,27.50
2018-04-22T11:06:29.839Z,27.44
2018-04-22T11:07:30.107Z,27.61
2018-04-22T11:08:29.683Z,27.68
2018-04-22T11:09:29.708Z,27.44
2018-04-22T11:10:29.593Z,27.23
2018-04-22T11:11:30.668Z,27.17
2018-04-22T11:12:31.623Z,27.19
2018-04-22T11:13:29.824Z,27.19
2018-04-22T11:14:31.562Z,27.08
2018-04-22T11:15:29.551Z,27.19
2018-04-22T11:16:29.490Z,27.57
2018-04-22T11:17:29.595Z,27.47
2018-04-22T11:18:29.479Z,27.57
2018-04-22T11:19:29.439Z,27.61
2018-04-22T11:20:29.517Z,27.37
2018-04-22T11:21:29.482Z,27.61
2018-04-22T11:22:29.460Z,27.57
2018-04-22T11:23:31.020Z,27.64
2018-04-22T11:24:29.351Z,28.06
2018-04-22T11:25:29.369Z,28.54
2018-04-22T11:26:29.348Z,28.84
2018-04-22T11:27:29.418Z,29.18
2018-04-22T11:28:29.427Z,29.68
2018-04-22T11:29:29.289Z,30.43
2018-04-22T11:30:32.138Z,30.60
2018-04-22T11:31:29.261Z,30.82
2018-04-22T11:32:29.219Z,31.10
2018-04-22T11:33:29.252Z,30.40
2018-04-22T11:34:29.236Z,29.63
2018-04-22T11:35:29.265Z,29.78
2018-04-22T11:36:32.146Z,30.67
2018-04-22T11:37:29.406Z,31.02
2018-04-22T11:38:29.196Z,30.95
2018-04-22T11:39:29.226Z,31.34
2018-04-22T11:40:29.176Z,31.11
2018-04-22T11:41:29.179Z,30.45
2018-04-22T11:42:29.888Z,30.07
2018-04-22T11:43:29.321Z,29.81
2018-04-22T11:44:29.029Z,29.12
2018-04-22T11:45:29.114Z,28.74
2018-04-22T11:46:29.127Z,28.72
2018-04-22T11:47:29.097Z,28.19
2018-04-22T11:48:29.008Z,28.52
2018-04-22T11:49:29.040Z,28.65
2018-04-22T11:50:28.968Z,29.29
2018-04-22T11:51:29.273Z,29.40
2018-04-22T11:52:31.166Z,28.90
2018-04-22T11:53:29.203Z,28.68
2018-04-22T11:54:29.578Z,29.18
2018-04-22T11:55:29.027Z,29.12
2018-04-22T11:56:28.917Z,29.02
2018-04-22T11:57:29.150Z,29.19
2018-04-22T11:58:29.150Z,29.65
2018-04-22T11:59:30.662Z,29.40
2018-04-22T12:00:28.903Z,29.84
2018-04-22T12:01:28.842Z,30.24
2018-04-22T12:02:28.840Z,31.42
2018-04-22T12:03:30.514Z,31.78
2018-04-22T12:04:29.085Z,31.81
2018-04-22T12:05:28.733Z,31.26
2018-04-22T12:06:28.800Z,31.45
2018-04-22T12:07:28.740Z,30.64
2018-04-22T12:08:29.106Z,29.80
2018-04-22T12:09:28.819Z,29.89
2018-04-22T12:10:28.643Z,30.00
2018-04-22T12:11:28.637Z,29.61
2018-04-22T12:12:28.843Z,30.14
2018-04-22T12:13:39.553Z,30.75
2018-04-22T12:14:29.074Z,30.80
2018-04-22T12:15:30.773Z,31.29
2018-04-22T12:16:28.575Z,31.97
2018-04-22T12:17:28.594Z,32.01
2018-04-22T12:18:31.636Z,32.31
2018-04-22T12:19:28.603Z,32.53
2018-04-22T12:20:31.367Z,32.43
2018-04-22T12:21:30.529Z,32.48
2018-04-22T12:22:28.698Z,32.32
2018-04-22T12:23:29.468Z,32.55
2018-04-22T12:24:28.738Z,31.90
2018-04-22T12:25:30.571Z,31.76
2018-04-22T12:26:29.264Z,31.57
2018-04-22T12:27:29.103Z,31.10
2018-04-22T12:28:28.509Z,30.78
2018-04-22T12:29:28.630Z,30.39
2018-04-22T12:30:28.475Z,29.92
2018-04-22T12:31:29.073Z,29.54
2018-04-22T12:32:28.581Z,28.98
2018-04-22T12:33:28.370Z,28.62
2018-04-22T12:34:28.751Z,28.53
2018-04-22T12:35:28.612Z,28.20
2018-04-22T12:36:28.435Z,28.01
2018-04-22T12:37:28.392Z,27.91
2018-04-22T12:38:28.272Z,27.83
2018-04-22T12:39:28.366Z,27.76
2018-04-22T12:40:28.286Z,27.52
2018-04-22T12:41:28.262Z,27.41
2018-04-22T12:42:28.299Z,27.49
2018-04-22T12:43:30.115Z,27.50
2018-04-22T12:44:29.060Z,27.54
2018-04-22T12:45:28.244Z,27.57
2018-04-22T12:46:28.298Z,27.54
2018-04-22T12:47:28.383Z,27.37
2018-04-22T12:48:28.252Z,27.31
2018-04-22T12:49:28.101Z,27.20
2018-04-22T12:50:28.087Z,27.17
2018-04-22T12:51:28.129Z,27.22
2018-04-22T12:52:28.091Z,27.16